Time;durP1;ratioP1;P1;durP2;ratioP2;P2;SDS_P1;SDS_P2;PMS_P1;PMS_P2;Temp;Humidity;BMP_temperature;BMP_pressure;BME280_temperature;BME280_humidity;BME280_pressure;Samples;Min_cycle;Max_cycle;Signal;HPM_P1;HPM_P2
2023/10/13 03:34:03;;;;;;;3.43;2.50;;;15.80;99.90;;;;;;4857928;26;20477;-67
2023/10/13 03:39:17;;;;;;;2.80;2.40;;;15.80;99.90;;;;;;5041318;28;20452;-68
2023/10/13 03:41:45;;;;;;;3.93;3.47;;;15.70;99.90;;;;;;5020691;28;20552;-67
2023/10/13 03:44:17;;;;;;;3.77;2.90;;;15.70;99.90;;;;;;5017465;28;20461;-67
2023/10/13 03:46:47;;;;;;;3.83;2.93;;;15.60;99.90;;;;;;5025474;28;21026;-67
2023/10/13 03:49:21;;;;;;;3.27;2.80;;;15.60;99.90;;;;;;5025973;28;20464;-67
2023/10/13 03:51:48;;;;;;;4.70;2.80;;;15.60;99.90;;;;;;5025505;28;21040;-68
2023/10/13 03:54:16;;;;;;;3.07;2.50;;;15.60;99.90;;;;;;5025542;28;20512;-67
2023/10/13 03:56:45;;;;;;;3.63;2.50;;;15.60;99.90;;;;;;5025083;28;20525;-68
2023/10/13 03:59:18;;;;;;;3.43;2.53;;;15.70;99.90;;;;;;5023766;28;20519;-67
2023/10/13 04:01:58;;;;;;;3.93;3.40;;;15.70;99.90;;;;;;5023823;28;20486;-67
2023/10/13 04:04:42;;;;;;;5.80;2.63;;;15.60;99.90;;;;;;5024827;28;20457;-67
2023/10/13 04:07:38;;;;;;;3.63;3.10;;;15.70;99.90;;;;;;5025516;28;20463;-67
2023/10/13 04:16:02;;;;;;;3.07;2.57;;;15.70;99.90;;;;;;5025976;28;20473;-67
2023/10/13 04:18:46;;;;;;;4.32;3.03;;;15.70;99.90;;;;;;5027190;28;20795;-67
2023/10/13 04:21:39;;;;;;;3.70;2.93;;;15.80;99.90;;;;;;5028314;28;20228;-67
2023/10/13 04:24:22;;;;;;;5.63;3.27;;;15.70;99.90;;;;;;5023194;28;20965;-67
2023/10/13 04:27:18;;;;;;;3.20;2.63;;;15.70;99.90;;;;;;5020668;28;20933;-67
2023/10/13 04:29:51;;;;;;;3.73;2.23;;;15.70;99.90;;;;;;5013054;28;21035;-67
2023/10/13 04:32:28;;;;;;;3.77;3.10;;;15.70;99.90;;;;;;5012255;28;20955;-67
2023/10/13 04:34:58;;;;;;;3.23;2.63;;;15.70;99.90;;;;;;5012819;28;20485;-67
2023/10/13 04:37:29;;;;;;;4.10;2.53;;;15.60;99.90;;;;;;5012901;28;20472;-67
2023/10/13 04:39:59;;;;;;;4.07;2.63;;;15.60;99.90;;;;;;5013376;28;21019;-67
2023/10/13 04:42:49;;;;;;;5.13;2.90;;;15.50;99.90;;;;;;5013237;28;20517;-67
2023/10/13 04:45:38;;;;;;;2.83;2.30;;;15.50;99.90;;;;;;5012435;28;20453;-67
2023/10/13 04:48:17;;;;;;;3.10;2.70;;;15.50;99.90;;;;;;5013452;28;20480;-67
2023/10/13 04:50:45;;;;;;;3.83;3.23;;;15.50;99.90;;;;;;5012978;28;20615;-66
2023/10/13 04:53:33;;;;;;;4.37;2.67;;;15.50;99.90;;;;;;5012932;28;20588;-67
2023/10/13 04:56:53;;;;;;;6.13;3.50;;;15.50;99.90;;;;;;5012940;28;21008;-67
2023/10/13 05:49:09;;;;;;;2.80;2.60;;;15.40;99.90;;;;;;5022460;28;20476;-67
2023/10/13 05:51:47;;;;;;;5.00;3.10;;;15.40;99.90;;;;;;5020792;28;20911;-67
2023/10/13 06:30:13;;;;;;;6.20;3.00;;;16.00;99.90;;;;;;5017980;28;20455;-68
2023/10/13 06:32:41;;;;;;;3.60;3.07;;;16.10;99.90;;;;;;5016088;28;20470;-67
2023/10/13 06:35:18;;;;;;;2.93;2.60;;;16.10;99.90;;;;;;5016007;28;20983;-67
2023/10/13 06:37:45;;;;;;;3.87;3.00;;;16.20;99.90;;;;;;5015535;28;20533;-67
2023/10/13 06:40:22;;;;;;;2.93;2.33;;;16.20;99.90;;;;;;5015806;28;20455;-67
2023/10/13 06:42:49;;;;;;;4.23;2.50;;;16.30;99.90;;;;;;5016089;28;20461;-66
2023/10/13 06:45:17;;;;;;;3.87;2.80;;;16.40;99.90;;;;;;5016017;28;20465;-67
2023/10/13 06:47:45;;;;;;;3.70;2.30;;;16.40;99.90;;;;;;5016150;28;20466;-67
2023/10/13 06:50:16;;;;;;;3.10;2.80;;;16.40;99.90;;;;;;5018286;28;20462;-66
2023/10/13 06:52:45;;;;;;;3.90;3.20;;;16.40;99.90;;;;;;5023185;28;20464;-67
2023/10/13 06:55:17;;;;;;;4.60;2.50;;;16.50;99.90;;;;;;5017208;28;20584;-67
2023/10/13 06:57:46;;;;;;;3.87;3.47;;;16.50;99.90;;;;;;5018450;28;20557;-67
2023/10/13 07:00:19;;;;;;;5.00;3.07;;;16.60;99.90;;;;;;5025430;28;20462;-67
2023/10/13 07:02:52;;;;;;;3.13;2.60;;;16.70;99.90;;;;;;5020370;28;20491;-67
2023/10/13 07:05:20;;;;;;;6.67;2.73;;;16.80;99.90;;;;;;5016218;28;20536;-67
2023/10/13 07:07:56;;;;;;;4.63;2.73;;;16.90;99.90;;;;;;5030078;28;20558;-67
2023/10/13 07:10:29;;;;;;;3.00;2.70;;;17.00;99.90;;;;;;5026108;28;20467;-67
2023/10/13 07:12:59;;;;;;;3.80;2.70;;;17.10;99.90;;;;;;5025188;28;20872;-67
2023/10/13 07:15:28;;;;;;;3.10;2.80;;;17.20;99.90;;;;;;5026017;28;20841;-67
2023/10/13 07:17:59;;;;;;;4.90;2.70;;;17.30;99.90;;;;;;5033529;28;20473;-67
2023/10/13 07:20:33;;;;;;;3.80;2.80;;;17.50;99.90;;;;;;5020179;28;20467;-67
2023/10/13 07:23:04;;;;;;;2.67;2.47;;;17.70;99.90;;;;;;5019266;28;20846;-67
2023/10/13 07:25:32;;;;;;;2.67;2.43;;;17.90;99.90;;;;;;5020279;28;20579;-67
2023/10/13 07:28:00;;;;;;;3.07;2.77;;;18.10;99.90;;;;;;5018999;28;21128;-67
2023/10/13 07:30:30;;;;;;;3.00;2.60;;;18.20;99.90;;;;;;5016282;28;20469;-67
2023/10/13 07:32:59;;;;;;;5.03;2.80;;;18.30;99.90;;;;;;5030657;28;20475;-67
2023/10/13 07:35:30;;;;;;;3.37;2.70;;;18.50;99.90;;;;;;5026158;28;20484;-66
2023/10/13 07:38:00;;;;;;;4.90;3.10;;;18.70;99.90;;;;;;5019191;28;20899;-67
2023/10/13 07:40:40;;;;;;;3.33;2.80;;;18.90;99.90;;;;;;5015401;28;20496;-67
2023/10/13 07:43:10;;;;;;;3.57;2.70;;;19.00;99.90;;;;;;5016910;28;20471;-67
2023/10/13 07:45:37;;;;;;;3.33;2.60;;;19.20;99.90;;;;;;5015427;28;20471;-67
2023/10/13 07:48:11;;;;;;;5.23;2.53;;;19.40;99.90;;;;;;5016825;28;20461;-67
2023/10/13 07:50:39;;;;;;;5.07;2.77;;;19.30;99.90;;;;;;5014722;28;20488;-67
2023/10/13 07:53:14;;;;;;;3.33;2.53;;;19.30;99.90;;;;;;5016768;28;20472;-67
2023/10/13 07:55:41;;;;;;;4.63;2.67;;;19.30;99.90;;;;;;5015225;28;20492;-67
2023/10/13 07:58:08;;;;;;;3.07;2.57;;;19.30;99.90;;;;;;5016518;28;20463;-67
2023/10/13 08:00:47;;;;;;;6.30;2.57;;;19.50;99.90;;;;;;5015591;28;20481;-66
2023/10/13 08:03:32;;;;;;;6.27;3.30;;;19.70;99.90;;;;;;5015301;28;20464;-67
2023/10/13 08:06:04;;;;;;;6.13;2.90;;;20.00;99.90;;;;;;5016482;28;20457;-67
2023/10/13 08:08:37;;;;;;;3.17;2.70;;;20.20;99.90;;;;;;5015843;28;20965;-67
2023/10/13 08:11:11;;;;;;;9.60;2.83;;;20.40;99.90;;;;;;5016825;28;20492;-67
2023/10/13 08:13:38;;;;;;;6.03;3.00;;;20.60;99.90;;;;;;5014895;28;20564;-67
2023/10/13 08:16:09;;;;;;;2.60;2.33;;;20.80;99.90;;;;;;5016668;28;20511;-67
2023/10/13 08:18:43;;;;;;;2.80;2.50;;;20.90;99.90;;;;;;5020859;28;20468;-67
2023/10/13 08:21:16;;;;;;;4.23;2.10;;;21.00;99.90;;;;;;5018935;28;20515;-67
2023/10/13 08:23:59;;;;;;;3.93;2.70;;;21.30;99.90;;;;;;5020794;28;20549;-67
2023/10/13 08:26:56;;;;;;;4.20;2.80;;;21.60;99.90;;;;;;5015309;28;20496;-67
2023/10/13 08:32:19;;;;;;;3.50;2.37;;;21.90;99.90;;;;;;5029012;28;20915;-67
2023/10/13 08:35:09;;;;;;;4.00;2.83;;;21.90;99.90;;;;;;5018743;28;20461;-68
2023/10/13 08:37:56;;;;;;;3.03;2.30;;;22.00;99.90;;;;;;5015820;28;20476;-67
2023/10/13 08:43:11;;;;;;;2.90;2.30;;;22.20;99.90;;;;;;5017835;28;20461;-68
2023/10/13 08:45:58;;;;;;;6.60;2.43;;;22.50;99.90;;;;;;5020483;28;20480;-68
2023/10/13 08:48:33;;;;;;;2.43;2.20;;;22.60;98.30;;;;;;5025156;28;20895;-68
2023/10/13 08:51:14;;;;;;;2.80;2.17;;;22.80;99.90;;;;;;5031421;28;20480;-67
2023/10/13 08:53:51;;;;;;;5.80;3.10;;;22.80;99.90;;;;;;5021395;28;20457;-65
2023/10/13 08:56:32;;;;;;;3.60;2.80;;;22.90;99.40;;;;;;5013631;28;20488;-66
2023/10/13 08:59:05;;;;;;;4.40;2.63;;;23.00;99.30;;;;;;5016674;28;20464;-67
2023/10/13 09:01:39;;;;;;;9.20;2.50;;;23.10;97.70;;;;;;5023743;28;20485;-67
2023/10/13 09:04:21;;;;;;;3.70;2.70;;;23.30;98.20;;;;;;5024353;28;20905;-67
2023/10/13 09:07:09;;;;;;;4.13;2.50;;;23.50;98.10;;;;;;5015175;28;20551;-67
2023/10/13 09:10:25;;;;;;;3.53;2.53;;;23.60;99.50;;;;;;5023317;28;20485;-66
2023/10/13 09:13:00;;;;;;;6.37;2.40;;;23.70;99.00;;;;;;5016483;28;20438;-67
2023/10/13 09:18:14;;;;;;;3.50;2.60;;;23.80;98.40;;;;;;5016258;28;20552;-67
2023/10/13 09:20:43;;;;;;;3.37;2.63;;;23.90;99.00;;;;;;5014560;28;20480;-68
2023/10/13 09:23:23;;;;;;;2.83;2.20;;;24.00;99.90;;;;;;5016181;28;20952;-67
2023/10/13 09:25:53;;;;;;;4.77;2.80;;;24.10;97.50;;;;;;5014489;28;20450;-67
2023/10/13 09:28:25;;;;;;;4.60;2.27;;;24.20;97.40;;;;;;5015791;28;20484;-67
2023/10/13 09:30:52;;;;;;;4.23;2.23;;;24.20;98.90;;;;;;5015478;28;20531;-67
2023/10/13 09:33:32;;;;;;;4.17;2.70;;;24.30;96.60;;;;;;5015316;28;20547;-67
2023/10/13 09:35:59;;;;;;;3.23;2.20;;;24.40;98.10;;;;;;5016024;28;20481;-67
2023/10/13 09:38:28;;;;;;;2.57;2.37;;;24.40;98.00;;;;;;5014651;28;20540;-67
2023/10/13 09:40:57;;;;;;;2.70;2.30;;;24.60;98.10;;;;;;5015982;28;20484;-67
2023/10/13 09:43:25;;;;;;;2.77;2.30;;;24.70;98.90;;;;;;5015228;28;20465;-67
2023/10/13 09:46:01;;;;;;;5.00;2.73;;;24.80;95.60;;;;;;5014433;28;20520;-66
2023/10/13 09:48:33;;;;;;;4.20;2.40;;;24.80;99.30;;;;;;5025396;28;21031;-67
2023/10/13 09:51:02;;;;;;;4.80;2.30;;;24.90;97.00;;;;;;5025309;28;20754;-67
2023/10/13 09:53:32;;;;;;;4.27;2.53;;;25.00;96.10;;;;;;5014685;28;20465;-67
2023/10/13 09:56:12;;;;;;;4.80;2.53;;;25.00;95.00;;;;;;5016192;28;20485;-67
2023/10/13 09:58:50;;;;;;;4.57;2.70;;;25.10;96.00;;;;;;5024386;28;20469;-67
2023/10/13 10:01:31;;;;;;;3.53;2.20;;;25.30;97.50;;;;;;5014850;28;20866;-67
2023/10/13 10:04:13;;;;;;;3.20;2.40;;;25.50;98.20;;;;;;5016423;28;20469;-67
2023/10/13 10:06:40;;;;;;;2.63;2.40;;;25.70;95.30;;;;;;5024648;28;20458;-67
2023/10/13 10:09:12;;;;;;;4.63;3.00;;;25.90;95.40;;;;;;5024616;28;20545;-67
2023/10/13 10:11:58;;;;;;;3.20;2.30;;;26.00;95.10;;;;;;5020743;28;20517;-66
2023/10/13 10:14:39;;;;;;;5.33;2.50;;;26.20;93.40;;;;;;5017170;28;20463;-67
2023/10/13 10:17:10;;;;;;;4.73;2.33;;;26.30;93.20;;;;;;5021133;28;20915;-66
2023/10/13 10:19:53;;;;;;;7.27;2.50;;;26.50;95.60;;;;;;5019559;28;20465;-66
2023/10/13 10:22:30;;;;;;;4.10;2.10;;;26.50;93.10;;;;;;5018276;28;20479;-66
2023/10/13 10:24:59;;;;;;;5.00;2.20;;;26.60;95.50;;;;;;5019940;28;20468;-67
2023/10/13 10:27:29;;;;;;;3.13;2.50;;;26.70;94.70;;;;;;5019508;28;20510;-67
2023/10/13 10:29:56;;;;;;;2.00;1.90;;;26.80;94.90;;;;;;5021343;28;20464;-66
2023/10/13 10:32:33;;;;;;;3.83;2.57;;;27.00;92.60;;;;;;5019907;28;20476;-67
2023/10/13 10:35:09;;;;;;;2.33;2.00;;;26.90;92.00;;;;;;5019814;28;20461;-67
2023/10/13 10:37:37;;;;;;;3.23;2.57;;;26.80;93.00;;;;;;5033246;28;20468;-67
2023/10/13 10:40:19;;;;;;;2.53;2.33;;;26.80;93.80;;;;;;5022740;28;20519;-67
2023/10/13 10:42:52;;;;;;;2.60;2.20;;;27.00;95.60;;;;;;5028975;28;20461;-67
2023/10/13 10:45:22;;;;;;;2.70;2.50;;;27.20;94.00;;;;;;5018171;28;20502;-67
2023/10/13 10:47:50;;;;;;;3.83;2.37;;;27.40;95.20;;;;;;5019541;28;20881;-67
2023/10/13 10:50:34;;;;;;;5.37;2.77;;;27.30;93.30;;;;;;5021178;28;20591;-67
2023/10/13 10:53:02;;;;;;;4.20;2.57;;;27.30;94.90;;;;;;5021029;28;20496;-67
2023/10/13 10:55:30;;;;;;;3.00;2.10;;;27.40;92.80;;;;;;5019154;28;20992;-68
2023/10/13 10:58:01;;;;;;;4.63;2.23;;;27.50;92.00;;;;;;5020445;28;20611;-67
2023/10/13 11:00:41;;;;;;;4.07;2.50;;;27.20;91.90;;;;;;5019605;28;20464;-67
2023/10/13 11:03:11;;;;;;;3.10;2.20;;;27.00;92.40;;;;;;5022337;28;20464;-67
2023/10/13 11:05:44;;;;;;;4.33;2.60;;;26.90;91.50;;;;;;5023727;28;20476;-67
2023/10/13 11:08:25;;;;;;;2.77;2.20;;;26.90;92.90;;;;;;5021970;28;20467;-66
2023/10/13 11:10:53;;;;;;;4.10;2.20;;;26.90;93.50;;;;;;5019974;28;20485;-67
2023/10/13 11:13:22;;;;;;;2.90;2.37;;;27.10;93.50;;;;;;5021323;28;20472;-67
2023/10/13 11:15:50;;;;;;;4.00;2.53;;;27.20;92.70;;;;;;5018903;28;20539;-68
2023/10/13 11:18:20;;;;;;;2.83;2.43;;;27.40;93.60;;;;;;5021814;28;20567;-67
2023/10/13 11:20:53;;;;;;;2.40;2.20;;;27.50;94.70;;;;;;5019522;28;20576;-66
2023/10/13 11:23:25;;;;;;;3.50;2.30;;;27.60;92.80;;;;;;5021096;28;20468;-67
2023/10/13 11:25:59;;;;;;;3.00;2.60;;;27.50;92.20;;;;;;5019674;28;20461;-67
2023/10/13 11:28:28;;;;;;;3.83;2.70;;;27.40;92.20;;;;;;5020679;28;20501;-68
2023/10/13 11:30:58;;;;;;;2.97;2.50;;;27.40;92.20;;;;;;5020349;28;20498;-67
2023/10/13 11:33:27;;;;;;;3.73;2.97;;;27.40;91.20;;;;;;5020977;28;20464;-67
2023/10/13 11:35:56;;;;;;;3.50;2.40;;;27.50;92.50;;;;;;5019921;28;20485;-67
2023/10/13 11:38:28;;;;;;;3.40;2.37;;;27.50;91.70;;;;;;5017985;28;20539;-67
2023/10/13 11:41:15;;;;;;;2.50;2.30;;;27.50;92.80;;;;;;5020863;28;20560;-67
2023/10/13 11:43:52;;;;;;;2.60;2.40;;;27.70;93.00;;;;;;5034406;28;20464;-67
2023/10/13 11:49:16;;;;;;;2.23;2.03;;;28.00;90.50;;;;;;5021885;28;20458;-67
2023/10/13 11:51:44;;;;;;;3.67;2.17;;;28.10;91.70;;;;;;5031860;28;20488;-67
2023/10/13 11:54:11;;;;;;;3.43;2.13;;;28.10;92.50;;;;;;5022751;28;20469;-67
2023/10/13 11:56:38;;;;;;;3.43;2.47;;;28.30;90.20;;;;;;5019968;28;20485;-67
2023/10/13 11:59:15;;;;;;;3.10;2.23;;;28.20;88.50;;;;;;5021797;28;20783;-68
2023/10/13 12:04:43;;;;;;;4.70;2.50;;;28.20;91.00;;;;;;5012137;28;20460;-67
2023/10/13 12:07:17;;;;;;;4.50;2.63;;;28.30;88.70;;;;;;5023080;28;20488;-67
2023/10/13 12:10:02;;;;;;;3.70;2.03;;;28.30;90.80;;;;;;5035334;28;20555;-67
2023/10/13 12:12:30;;;;;;;3.17;2.37;;;28.50;90.90;;;;;;5019262;28;21115;-67
2023/10/13 12:15:09;;;;;;;3.10;2.60;;;28.60;90.20;;;;;;5020405;28;20500;-67
2023/10/13 12:17:35;;;;;;;3.00;2.53;;;28.70;88.40;;;;;;5020372;28;20495;-66
2023/10/13 12:20:04;;;;;;;4.80;3.00;;;28.80;90.60;;;;;;5021942;28;20537;-65
2023/10/13 12:22:38;;;;;;;2.97;2.37;;;28.90;88.30;;;;;;5021167;28;20969;-65
2023/10/13 12:25:18;;;;;;;3.17;2.33;;;29.00;90.80;;;;;;5021635;28;20492;-67
2023/10/13 12:27:48;;;;;;;4.77;2.60;;;28.90;87.70;;;;;;5032412;28;20461;-67
2023/10/13 12:30:22;;;;;;;3.60;2.50;;;28.90;88.10;;;;;;5019625;28;20484;-66
2023/10/13 12:32:58;;;;;;;2.70;2.50;;;29.00;86.20;;;;;;5020636;28;20893;-67
2023/10/13 12:35:30;;;;;;;3.17;2.47;;;28.80;87.90;;;;;;5027122;28;20468;-66
2023/10/13 12:38:04;;;;;;;3.10;2.13;;;28.70;87.70;;;;;;5021191;28;20481;-68
2023/10/13 12:49:04;;;;;;;5.30;2.43;;;28.90;90.40;;;;;;5032420;28;20928;-67
2023/10/13 12:51:51;;;;;;;3.63;2.30;;;29.00;90.00;;;;;;5019641;28;20508;-68
2023/10/13 12:54:23;;;;;;;2.70;2.50;;;29.00;88.60;;;;;;5019491;28;20460;-68
2023/10/13 12:56:56;;;;;;;3.47;2.60;;;29.10;88.50;;;;;;5020449;28;20485;-68
2023/10/13 12:59:26;;;;;;;2.70;2.03;;;29.20;88.50;;;;;;5022710;28;20464;-68
2023/10/13 13:01:55;;;;;;;3.60;2.70;;;29.20;87.90;;;;;;5020789;28;20490;-68
2023/10/13 13:04:21;;;;;;;3.50;2.70;;;29.10;89.60;;;;;;5023017;28;20562;-69
2023/10/13 13:06:49;;;;;;;2.60;2.40;;;29.20;90.40;;;;;;5020202;28;20468;-68
2023/10/13 13:09:25;;;;;;;2.67;2.30;;;29.20;89.90;;;;;;5023811;28;20489;-68
2023/10/13 13:11:56;;;;;;;3.13;2.07;;;29.30;87.80;;;;;;5031743;28;20488;-68
2023/10/13 13:14:28;;;;;;;2.80;2.33;;;29.30;84.50;;;;;;5022335;28;20457;-68
2023/10/13 13:17:04;;;;;;;2.70;2.50;;;29.30;87.20;;;;;;5021520;28;20568;-69
2023/10/13 13:19:35;;;;;;;3.30;2.30;;;29.30;88.10;;;;;;5022235;28;20507;-68
2023/10/13 13:22:03;;;;;;;3.40;2.37;;;29.30;86.10;;;;;;5022111;28;20512;-68
2023/10/13 13:24:30;;;;;;;3.20;2.47;;;29.30;90.50;;;;;;5021800;28;20461;-68
2023/10/13 13:27:02;;;;;;;6.73;2.43;;;29.30;83.00;;;;;;5021819;28;20465;-69
2023/10/13 13:29:30;;;;;;;3.00;2.50;;;29.10;82.30;;;;;;5022619;28;20460;-69
2023/10/13 13:32:00;;;;;;;5.20;2.47;;;29.10;82.50;;;;;;5021908;28;20581;-68
2023/10/13 13:34:30;;;;;;;2.67;2.43;;;29.20;89.60;;;;;;5027253;28;21042;-66
2023/10/13 13:37:00;;;;;;;3.27;2.30;;;29.40;89.30;;;;;;5020355;28;20531;-66
2023/10/13 13:39:30;;;;;;;3.43;2.57;;;29.50;84.80;;;;;;5022658;28;20461;-66
2023/10/13 13:41:57;;;;;;;2.60;2.40;;;29.60;83.30;;;;;;5022263;28;20858;-66
2023/10/13 13:44:29;;;;;;;2.80;2.07;;;29.60;85.10;;;;;;5023124;28;20555;-65
2023/10/13 13:46:58;;;;;;;2.80;1.93;;;29.60;82.90;;;;;;5022369;28;20462;-66
2023/10/13 13:49:39;;;;;;;3.23;2.40;;;29.40;84.40;;;;;;5027542;28;20551;-65
2023/10/13 13:52:06;;;;;;;4.70;2.03;;;29.30;79.80;;;;;;5027344;28;20513;-65
2023/10/13 13:54:33;;;;;;;4.00;2.63;;;29.20;83.00;;;;;;5025985;28;20543;-65
2023/10/13 13:57:00;;;;;;;2.53;2.33;;;29.10;81.60;;;;;;5030733;28;20819;-66
2023/10/13 13:59:33;;;;;;;3.67;2.30;;;29.10;82.20;;;;;;5042258;28;20503;-65
2023/10/13 14:02:19;;;;;;;2.80;2.30;;;29.10;85.20;;;;;;5038749;28;20520;-66
2023/10/13 14:04:46;;;;;;;5.83;2.50;;;29.10;79.80;;;;;;5035518;28;20469;-66
2023/10/13 14:07:16;;;;;;;3.93;2.40;;;28.90;81.70;;;;;;5023260;28;20459;-66
2023/10/13 14:09:44;;;;;;;2.70;1.90;;;28.70;83.80;;;;;;5025424;28;20821;-65
2023/10/13 14:14:56;;;;;;;3.77;2.23;;;28.80;85.20;;;;;;5036149;28;20507;-64
2023/10/13 14:17:28;;;;;;;4.40;2.80;;;28.70;81.70;;;;;;5042582;28;20518;-70
2023/10/13 14:19:57;;;;;;;2.90;2.13;;;28.60;82.80;;;;;;5022643;28;20461;-66
2023/10/13 14:22:25;;;;;;;2.73;2.37;;;28.60;80.80;;;;;;5038499;28;20511;-67
2023/10/13 14:24:54;;;;;;;2.63;2.43;;;28.50;81.50;;;;;;5036653;28;21040;-66
2023/10/13 14:27:23;;;;;;;2.43;2.03;;;28.50;81.30;;;;;;5024503;28;20582;-67
2023/10/13 14:29:52;;;;;;;2.17;1.90;;;28.50;77.90;;;;;;5016824;28;20465;-65
2023/10/13 14:32:24;;;;;;;1.80;1.70;;;28.50;80.20;;;;;;5038428;28;20480;-66
2023/10/13 14:34:56;;;;;;;2.10;1.57;;;28.40;79.90;;;;;;5039185;28;20826;-67
2023/10/13 14:37:28;;;;;;;3.47;1.97;;;28.40;80.80;;;;;;5036342;28;20492;-66
2023/10/13 14:39:56;;;;;;;2.40;2.00;;;28.40;81.10;;;;;;5027906;28;20469;-66
2023/10/13 14:42:24;;;;;;;2.43;2.13;;;28.30;81.00;;;;;;5023742;28;20492;-66
2023/10/13 14:44:55;;;;;;;4.13;1.87;;;28.20;76.70;;;;;;5039463;28;20480;-66
2023/10/13 14:47:24;;;;;;;3.27;2.13;;;28.10;81.10;;;;;;5043452;28;20968;-66
2023/10/13 14:49:54;;;;;;;4.20;2.27;;;28.10;79.20;;;;;;5038571;28;20824;-69
2023/10/13 14:52:21;;;;;;;2.53;1.70;;;28.10;81.20;;;;;;5043616;28;20549;-67
2023/10/13 14:54:54;;;;;;;6.50;2.67;;;28.10;79.00;;;;;;5038442;28;20479;-66
2023/10/13 14:57:24;;;;;;;2.70;1.80;;;28.10;80.20;;;;;;5043177;28;20859;-66
2023/10/13 14:59:51;;;;;;;5.63;2.13;;;28.10;77.20;;;;;;5040340;28;20460;-66
2023/10/13 15:02:18;;;;;;;2.17;1.73;;;28.10;81.00;;;;;;5037344;28;20577;-68
2023/10/13 15:04:48;;;;;;;3.17;1.97;;;28.10;82.60;;;;;;5039471;28;20471;-66
2023/10/13 15:07:16;;;;;;;2.30;2.00;;;28.10;82.70;;;;;;5022089;28;20469;-66
2023/10/13 15:09:43;;;;;;;1.97;1.77;;;28.00;77.70;;;;;;5026203;28;20467;-66
2023/10/13 15:12:10;;;;;;;3.13;2.00;;;27.90;78.80;;;;;;5025086;28;20917;-66
2023/10/13 15:14:37;;;;;;;2.10;1.87;;;27.80;79.20;;;;;;5026490;28;20468;-66
2023/10/13 15:17:06;;;;;;;2.30;2.10;;;27.70;77.40;;;;;;5024840;28;20485;-66
2023/10/13 15:19:35;;;;;;;2.97;1.83;;;27.60;79.50;;;;;;5028532;28;20475;-68
2023/10/13 15:22:05;;;;;;;2.70;1.60;;;27.50;80.10;;;;;;5024234;28;21320;-66
2023/10/13 15:24:41;;;;;;;2.87;2.17;;;27.40;79.20;;;;;;5028035;28;20468;-66
2023/10/13 15:27:08;;;;;;;2.00;1.80;;;27.30;78.50;;;;;;5039169;28;21020;-66
2023/10/13 15:29:36;;;;;;;4.70;2.00;;;27.10;81.00;;;;;;5039502;28;20472;-65
2023/10/13 15:32:41;;;;;;;3.13;2.10;;;27.00;78.60;;;;;;5031595;28;20484;-66
2023/10/13 15:34:52;;;;;;;2.40;2.20;;;26.80;78.70;;;;;;5042321;28;20902;-66
2023/10/13 15:37:20;;;;;;;2.33;2.13;;;26.70;79.40;;;;;;5041896;28;20495;-66
2023/10/13 15:39:48;;;;;;;4.13;2.20;;;26.50;77.00;;;;;;5043058;28;20468;-66
2023/10/13 15:42:15;;;;;;;2.23;1.60;;;26.50;79.40;;;;;;5022157;28;20481;-66
2023/10/13 15:44:43;;;;;;;5.33;2.20;;;26.40;79.90;;;;;;5026958;28;20460;-66
2023/10/13 15:47:12;;;;;;;2.40;1.87;;;26.30;77.10;;;;;;5026218;28;20459;-66
2023/10/13 15:49:41;;;;;;;1.90;1.67;;;26.10;81.60;;;;;;5033863;28;20493;-66
2023/10/13 15:52:09;;;;;;;1.87;1.63;;;25.90;78.20;;;;;;5041025;28;20992;-66
2023/10/13 15:54:36;;;;;;;3.60;1.90;;;25.80;80.40;;;;;;5045327;28;20847;-66
2023/10/13 15:57:06;;;;;;;2.13;1.83;;;25.60;79.70;;;;;;5025514;28;20482;-66
2023/10/13 15:59:34;;;;;;;2.10;1.77;;;25.40;79.90;;;;;;5028067;28;20560;-67
2023/10/13 16:02:00;;;;;;;2.20;1.87;;;25.40;80.70;;;;;;5025359;28;20524;-66
2023/10/13 16:04:27;;;;;;;3.00;1.83;;;25.30;81.10;;;;;;5028012;28;20567;-66
2023/10/13 16:06:54;;;;;;;2.63;1.37;;;25.30;80.90;;;;;;5027160;28;20500;-66
2023/10/13 16:09:23;;;;;;;2.67;1.83;;;25.20;82.00;;;;;;5028046;28;20472;-67
2023/10/13 16:11:51;;;;;;;2.03;1.83;;;25.10;81.70;;;;;;5025429;28;20491;-67
2023/10/13 16:14:20;;;;;;;1.83;1.50;;;25.00;81.60;;;;;;5028665;28;20961;-67
2023/10/13 16:16:48;;;;;;;5.40;2.70;;;24.90;80.00;;;;;;5026928;28;20512;-66
2023/10/13 16:19:17;;;;;;;2.20;2.00;;;24.80;81.40;;;;;;5022436;28;20953;-67
2023/10/13 16:21:45;;;;;;;1.97;1.70;;;24.70;80.50;;;;;;5027347;28;21185;-67
2023/10/13 16:24:15;;;;;;;1.70;1.60;;;24.60;81.40;;;;;;5031344;28;20474;-66
2023/10/13 16:26:42;;;;;;;3.93;2.00;;;24.60;82.20;;;;;;5045718;28;20980;-67
2023/10/13 16:29:09;;;;;;;3.90;2.40;;;24.50;83.10;;;;;;5044788;28;20471;-67
2023/10/13 16:31:37;;;;;;;2.50;2.30;;;24.40;83.90;;;;;;5046454;28;20511;-67
2023/10/13 16:34:05;;;;;;;3.20;1.60;;;24.30;83.30;;;;;;5043497;28;20476;-66
2023/10/13 16:36:32;;;;;;;2.90;2.20;;;24.30;83.50;;;;;;5034711;28;20469;-67
2023/10/13 16:38:59;;;;;;;2.67;1.97;;;24.20;84.20;;;;;;5041129;28;20853;-66
2023/10/13 16:41:28;;;;;;;2.33;1.80;;;24.10;84.90;;;;;;5036980;28;20487;-66
2023/10/13 16:43:55;;;;;;;2.37;2.03;;;24.00;85.50;;;;;;5025901;28;20465;-67
2023/10/13 16:46:23;;;;;;;2.70;2.10;;;24.00;90.20;;;;;;5026194;28;20469;-66
2023/10/13 16:48:52;;;;;;;1.87;1.53;;;23.90;90.50;;;;;;5041225;28;20509;-66
2023/10/13 16:51:19;;;;;;;3.73;2.40;;;23.70;91.50;;;;;;5036062;28;20523;-66
2023/10/13 16:53:49;;;;;;;2.50;2.03;;;23.50;92.70;;;;;;5031211;28;20551;-67
2023/10/13 16:56:17;;;;;;;2.60;1.80;;;23.30;93.20;;;;;;5016782;28;20472;-66
2023/10/13 16:58:46;;;;;;;2.27;2.07;;;23.10;93.90;;;;;;5022137;28;20571;-66
2023/10/13 17:01:14;;;;;;;1.77;1.67;;;22.90;94.00;;;;;;5018741;28;21223;-67
2023/10/13 17:03:44;;;;;;;2.57;2.00;;;22.70;93.50;;;;;;5026043;28;20479;-66
2023/10/13 17:06:13;;;;;;;2.00;1.73;;;22.50;92.50;;;;;;5026713;28;20464;-66
2023/10/13 17:08:40;;;;;;;2.27;2.07;;;22.30;92.90;;;;;;5026983;28;20530;-66
2023/10/13 17:11:11;;;;;;;2.33;1.97;;;22.20;92.70;;;;;;5018584;28;20595;-66
2023/10/13 17:13:39;;;;;;;2.70;1.90;;;22.10;91.90;;;;;;5026142;28;20852;-66
2023/10/13 17:16:12;;;;;;;2.23;1.80;;;22.00;93.30;;;;;;5018049;28;20817;-66
2023/10/13 17:18:39;;;;;;;2.90;2.17;;;21.90;92.50;;;;;;5026598;28;20568;-66
2023/10/13 17:21:17;;;;;;;5.30;2.10;;;21.80;93.30;;;;;;5018685;28;20485;-66
2023/10/13 17:23:44;;;;;;;2.20;1.70;;;21.70;92.90;;;;;;5025595;28;20464;-67
2023/10/13 17:26:13;;;;;;;2.30;2.07;;;21.70;92.40;;;;;;5019915;28;20479;-66
2023/10/13 17:28:40;;;;;;;2.03;1.60;;;21.60;92.40;;;;;;5024473;28;20813;-66
2023/10/13 17:31:10;;;;;;;2.40;2.20;;;21.60;92.70;;;;;;5021590;28;20861;-66
2023/10/13 17:33:39;;;;;;;4.73;2.27;;;21.60;92.40;;;;;;5029190;28;20555;-66
2023/10/13 17:36:07;;;;;;;2.17;1.97;;;21.60;92.80;;;;;;5022112;28;20891;-66
2023/10/13 17:38:36;;;;;;;2.50;2.10;;;21.50;91.90;;;;;;5029125;28;20516;-67
2023/10/13 17:41:05;;;;;;;2.30;1.77;;;21.50;93.40;;;;;;5022565;28;20486;-66
2023/10/13 17:43:34;;;;;;;3.00;2.20;;;21.40;92.30;;;;;;5029345;28;20523;-66
2023/10/13 17:46:05;;;;;;;2.93;2.20;;;21.40;92.00;;;;;;5012721;28;20465;-65
2023/10/13 17:48:32;;;;;;;2.70;2.30;;;21.40;92.80;;;;;;5010417;28;20473;-66
2023/10/13 17:51:00;;;;;;;3.00;2.27;;;21.30;92.90;;;;;;5009636;28;20476;-66
2023/10/13 17:53:34;;;;;;;2.63;1.83;;;21.30;91.80;;;;;;5010183;28;20477;-66
2023/10/13 17:56:08;;;;;;;4.87;2.73;;;21.30;93.20;;;;;;5009240;28;20465;-66
2023/10/13 17:58:35;;;;;;;3.10;2.40;;;21.30;93.20;;;;;;5010203;28;20477;-66
2023/10/13 18:01:06;;;;;;;2.80;2.50;;;21.20;93.20;;;;;;5009883;28;20491;-66
2023/10/13 18:03:34;;;;;;;2.63;2.43;;;21.20;94.70;;;;;;5010169;28;20469;-66
2023/10/13 18:06:02;;;;;;;3.60;2.70;;;21.10;94.30;;;;;;5009812;28;20476;-66
2023/10/13 18:08:29;;;;;;;3.50;2.60;;;21.00;95.00;;;;;;5010540;28;20469;-66
2023/10/13 18:10:56;;;;;;;3.27;2.57;;;20.90;95.20;;;;;;5010282;28;20518;-66
2023/10/13 18:13:24;;;;;;;2.70;2.50;;;20.80;96.20;;;;;;5010521;28;20974;-66
2023/10/13 18:15:51;;;;;;;2.97;2.40;;;20.60;96.70;;;;;;5010321;28;20476;-65
2023/10/13 18:18:18;;;;;;;2.63;2.40;;;20.50;96.60;;;;;;5010844;28;20564;-66
2023/10/13 18:20:45;;;;;;;5.70;2.40;;;20.40;96.50;;;;;;5011692;28;20572;-66
2023/10/13 18:23:12;;;;;;;4.07;2.70;;;20.20;97.20;;;;;;5216445;22;20504;-66
2023/10/13 18:25:42;;;;;;;3.97;2.60;;;20.10;97.50;;;;;;5049380;28;20554;-65
2023/10/13 18:28:10;;;;;;;3.43;2.77;;;19.90;97.30;;;;;;5048890;28;20466;-67
2023/10/13 18:30:38;;;;;;;4.23;2.80;;;19.80;97.00;;;;;;5046551;28;20480;-66
2023/10/13 18:33:07;;;;;;;4.00;2.50;;;19.80;96.70;;;;;;5028916;28;20475;-67
2023/10/13 18:35:37;;;;;;;4.57;2.63;;;19.80;97.30;;;;;;5032379;28;20464;-66
2023/10/13 18:38:05;;;;;;;3.07;2.70;;;19.80;97.30;;;;;;5032479;28;20492;-66
2023/10/13 18:40:36;;;;;;;4.10;2.70;;;19.70;97.60;;;;;;5033205;28;20965;-66
2023/10/13 18:43:03;;;;;;;3.83;2.60;;;19.70;97.30;;;;;;5032071;28;20469;-66
2023/10/13 18:45:31;;;;;;;3.73;2.50;;;19.70;97.00;;;;;;5032859;28;20490;-66